BRU weather

Brussels Airport
Brussels, Brussels-Capital Region, Belgium

Public forecast

Using degrees Celsius for public forecast. Weather courtesy of forecast.io.

METAR (pilot weather report)

Retrieved 2019/02/18 17:50 UTC (17 minutes ago):

EBBR 181750Z 20005KT CAVOK 09/04 Q1015 NOSIG

TAF (pilot weather forecast)

Retrieved 2019/02/18 18:28 UTC (0 seconds ago):

TAF EBBR 181722Z 1818/1924 19008KT CAVOK TEMPO 1901/1903 4500 -RADZ BKN011 TEMPO 1903/1907 BKN009 BECMG 1907/1909 25010KT